createdAt,value
2024-01-16T00:02:14.540Z,4.57
2024-01-16T00:05:04.400Z,5.00
2024-01-16T00:07:53.585Z,3.72
2024-01-16T00:10:24.308Z,5.60
2024-01-16T00:12:57.586Z,4.78
2024-01-16T00:15:28.312Z,2.45
2024-01-16T00:17:59.193Z,6.00
2024-01-16T00:20:30.055Z,8.65
2024-01-16T00:23:00.816Z,5.57
2024-01-16T00:25:31.568Z,3.95
2024-01-16T00:28:05.522Z,3.70
2024-01-16T00:30:36.242Z,7.05
2024-01-16T00:33:07.180Z,5.55
2024-01-16T00:35:37.924Z,5.75
2024-01-16T00:38:08.744Z,8.73
2024-01-16T00:40:39.489Z,3.10
2024-01-16T00:43:12.881Z,4.20
2024-01-16T00:45:44.212Z,4.88
2024-01-16T00:48:15.592Z,4.57
2024-01-16T00:50:47.555Z,3.42
2024-01-16T00:53:18.444Z,6.10
2024-01-16T00:55:49.211Z,3.50
2024-01-16T00:58:22.505Z,4.80
2024-01-16T01:00:53.677Z,3.05
2024-01-16T01:03:24.498Z,4.90
2024-01-16T01:05:55.443Z,6.50
2024-01-16T01:08:26.279Z,2.67
2024-01-16T01:10:57.102Z,4.78
2024-01-16T01:13:30.550Z,3.90
2024-01-16T01:16:01.705Z,4.47
2024-01-16T01:18:32.601Z,10.35
2024-01-16T01:21:03.416Z,6.40
2024-01-16T01:23:34.268Z,3.60
2024-01-16T01:26:06.072Z,3.30
2024-01-16T01:28:41.417Z,7.72
2024-01-16T01:31:13.353Z,2.05
2024-01-16T01:33:44.331Z,7.30
2024-01-16T01:36:15.010Z,5.30
2024-01-16T01:38:45.743Z,3.50
2024-01-16T01:41:16.480Z,5.18
2024-01-16T01:43:49.808Z,7.00
2024-01-16T01:46:22.979Z,5.60
2024-01-16T01:48:54.290Z,3.63
2024-01-16T01:51:25.927Z,2.85
2024-01-16T01:53:59.906Z,3.20
2024-01-16T01:56:31.628Z,4.47
2024-01-16T01:59:05.965Z,4.72
2024-01-16T02:01:38.431Z,7.22
2024-01-16T02:04:10.413Z,5.57
2024-01-16T02:06:41.285Z,7.55
2024-01-16T02:09:14.605Z,4.47
2024-01-16T02:11:45.972Z,8.05
2024-01-16T02:14:19.397Z,2.60
2024-01-16T02:16:50.995Z,4.78
2024-01-16T02:19:21.913Z,4.25
2024-01-16T02:21:53.466Z,3.70
2024-01-16T02:24:26.844Z,2.55
2024-01-16T02:26:57.761Z,2.85
2024-01-16T02:29:28.569Z,4.68
2024-01-16T02:31:59.311Z,4.35
2024-01-16T02:34:30.066Z,5.95
2024-01-16T02:37:00.805Z,3.55
2024-01-16T02:39:34.235Z,6.90
2024-01-16T02:42:04.991Z,3.95
2024-01-16T02:44:35.841Z,8.15
2024-01-16T02:47:08.572Z,5.85
2024-01-16T02:49:41.371Z,4.10
2024-01-16T02:52:12.131Z,4.18
2024-01-16T02:54:45.648Z,4.05
2024-01-16T02:57:16.664Z,7.10
2024-01-16T02:59:48.114Z,7.60
2024-01-16T03:02:18.934Z,4.25
2024-01-16T03:04:49.704Z,3.85
2024-01-16T03:07:20.823Z,3.78
2024-01-16T03:09:54.288Z,5.18
2024-01-16T03:12:25.045Z,6.20
2024-01-16T03:14:55.886Z,6.38
2024-01-16T03:17:27.158Z,3.65
2024-01-16T03:19:58.021Z,6.60
2024-01-16T03:22:28.666Z,4.45
2024-01-16T03:25:01.907Z,6.35
2024-01-16T03:27:32.791Z,7.30
2024-01-16T03:30:04.331Z,4.30
2024-01-16T03:32:35.508Z,6.35
2024-01-16T03:35:06.413Z,4.22
2024-01-16T03:37:37.389Z,5.80
2024-01-16T03:40:13.465Z,12.05
2024-01-16T03:42:44.166Z,4.35
2024-01-16T03:45:17.683Z,11.00
2024-01-16T03:47:50.633Z,6.95
2024-01-16T03:50:21.532Z,6.78
2024-01-16T03:52:52.331Z,5.28
2024-01-16T03:55:25.679Z,10.93
2024-01-16T03:57:56.429Z,8.88
2024-01-16T04:00:27.118Z,5.88
2024-01-16T04:02:57.844Z,10.30
2024-01-16T04:05:28.594Z,5.65
2024-01-16T04:08:01.143Z,5.25
2024-01-16T04:10:34.469Z,8.20
2024-01-16T04:13:05.592Z,7.18
2024-01-16T04:15:36.418Z,5.55
2024-01-16T04:18:08.140Z,8.93
2024-01-16T04:20:38.955Z,7.32
2024-01-16T04:23:09.673Z,6.32
2024-01-16T04:25:43.031Z,6.13
2024-01-16T04:28:13.748Z,4.88
2024-01-16T04:30:47.566Z,6.82
2024-01-16T04:33:18.472Z,6.47
2024-01-16T04:35:46.982Z,4.35
2024-01-16T04:38:17.862Z,7.50
2024-01-16T04:40:51.302Z,7.85
2024-01-16T04:43:22.105Z,11.65
2024-01-16T04:45:52.857Z,9.05
2024-01-16T04:48:23.607Z,6.57
2024-01-16T04:50:54.503Z,4.68
2024-01-16T04:53:25.357Z,7.53
2024-01-16T04:55:58.822Z,6.70
2024-01-16T04:58:29.582Z,10.35
2024-01-16T05:01:00.341Z,7.25
2024-01-16T05:03:31.221Z,6.28
2024-01-16T05:06:02.146Z,9.70
2024-01-16T05:08:32.911Z,6.93
2024-01-16T05:11:06.393Z,5.88
2024-01-16T05:13:37.123Z,11.20
2024-01-16T05:16:09.360Z,8.15
2024-01-16T05:18:40.150Z,13.55
2024-01-16T05:21:11.133Z,10.43
2024-01-16T05:23:41.945Z,6.90
2024-01-16T05:26:15.299Z,13.52
2024-01-16T05:28:46.056Z,8.38
2024-01-16T05:31:16.833Z,6.82
2024-01-16T05:33:47.725Z,5.55
2024-01-16T05:36:18.458Z,7.38
2024-01-16T05:38:49.208Z,8.02
2024-01-16T05:41:22.810Z,9.18
2024-01-16T05:43:53.565Z,9.75
2024-01-16T05:46:24.831Z,8.73
2024-01-16T05:48:55.710Z,11.32
2024-01-16T05:51:26.855Z,7.57
2024-01-16T05:53:57.609Z,12.13
2024-01-16T05:56:30.965Z,9.13
2024-01-16T05:59:01.683Z,7.63
2024-01-16T06:01:32.376Z,9.50
2024-01-16T06:04:03.170Z,10.00
2024-01-16T06:06:34.609Z,11.13
2024-01-16T06:09:07.117Z,8.73
2024-01-16T06:11:42.139Z,9.27
2024-01-16T06:14:13.706Z,9.38
2024-01-16T06:16:44.475Z,10.25
2024-01-16T06:19:16.098Z,9.45
2024-01-16T06:21:46.872Z,9.02
2024-01-16T06:24:17.577Z,12.65
2024-01-16T06:26:51.055Z,9.10
2024-01-16T06:29:31.574Z,8.15
2024-01-16T06:32:05.912Z,8.38
2024-01-16T06:34:36.767Z,9.82
2024-01-16T06:37:08.054Z,9.07
2024-01-16T06:39:39.414Z,10.25
2024-01-16T06:42:12.903Z,9.38
2024-01-16T06:44:43.703Z,7.22
2024-01-16T06:47:14.635Z,10.02
2024-01-16T06:49:45.597Z,7.70
2024-01-16T06:52:16.467Z,10.65
2024-01-16T06:54:47.216Z,11.50
2024-01-16T06:57:20.591Z,16.30
2024-01-16T06:59:51.600Z,20.83
2024-01-16T07:02:22.401Z,17.15
2024-01-16T07:04:53.189Z,11.98
2024-01-16T07:07:23.977Z,12.45
2024-01-16T07:09:54.689Z,12.27
2024-01-16T07:12:28.029Z,22.50
2024-01-16T07:14:58.824Z,15.93
2024-01-16T07:17:29.687Z,15.40
2024-01-16T07:20:00.504Z,16.67
2024-01-16T07:22:31.270Z,9.27
2024-01-16T07:25:02.104Z,18.90
2024-01-16T07:27:35.724Z,14.60
2024-01-16T07:30:09.222Z,14.13
2024-01-16T07:32:40.112Z,17.23
2024-01-16T07:35:11.756Z,13.27
2024-01-16T07:37:42.486Z,14.70
2024-01-16T07:40:14.091Z,13.80
2024-01-16T07:42:47.515Z,12.23
2024-01-16T07:45:18.485Z,16.88
2024-01-16T07:47:49.225Z,15.52
2024-01-16T07:50:19.973Z,15.20
2024-01-16T07:52:50.740Z,16.35
2024-01-16T07:55:24.391Z,13.60
2024-01-16T07:57:58.917Z,16.08
2024-01-16T08:00:29.655Z,15.85
2024-01-16T08:03:00.655Z,13.55
2024-01-16T08:05:31.736Z,15.15
2024-01-16T08:08:02.546Z,14.73
2024-01-16T08:10:33.303Z,19.75
2024-01-16T08:13:07.371Z,13.00
2024-01-16T08:15:38.719Z,19.33
2024-01-16T08:18:09.912Z,19.75
2024-01-16T08:20:40.789Z,16.08
2024-01-16T08:23:11.608Z,20.90
2024-01-16T08:25:42.389Z,16.10
2024-01-16T08:28:16.275Z,13.65
2024-01-16T08:30:47.139Z,17.70
2024-01-16T08:33:18.064Z,18.23
2024-01-16T08:35:48.935Z,17.27
2024-01-16T08:38:19.688Z,17.45
2024-01-16T08:40:50.477Z,16.30
2024-01-16T08:43:23.812Z,19.33
2024-01-16T08:45:54.603Z,21.58
2024-01-16T08:48:25.552Z,19.33
2024-01-16T08:50:57.290Z,22.38
2024-01-16T08:53:28.507Z,21.80
2024-01-16T08:55:59.320Z,19.05
2024-01-16T08:58:37.033Z,20.90
2024-01-16T09:01:08.651Z,17.88
2024-01-16T09:03:39.560Z,18.92
2024-01-16T09:06:11.975Z,23.05
2024-01-16T09:08:43.005Z,18.38
2024-01-16T09:11:13.937Z,22.83
2024-01-16T09:13:47.829Z,19.92
2024-01-16T09:16:18.642Z,14.65
2024-01-16T09:18:49.535Z,20.95
2024-01-16T09:21:20.377Z,22.63
2024-01-16T09:23:51.208Z,21.05
2024-01-16T09:26:22.230Z,17.75
2024-01-16T09:28:55.664Z,18.48
2024-01-16T09:31:26.372Z,20.30
2024-01-16T09:33:57.167Z,21.40
2024-01-16T09:36:27.920Z,17.67
2024-01-16T09:38:58.735Z,26.98
2024-01-16T09:41:48.713Z,24.52
2024-01-16T09:44:22.198Z,19.38
2024-01-16T09:46:55.026Z,20.35
2024-01-16T09:49:27.125Z,18.92
2024-01-16T09:52:00.462Z,19.10
2024-01-16T09:54:31.286Z,19.92
2024-01-16T09:57:03.301Z,22.77
2024-01-16T09:59:40.716Z,22.88
2024-01-16T10:02:14.255Z,25.42
2024-01-16T10:04:45.846Z,24.85
2024-01-16T10:07:18.167Z,22.27
2024-01-16T10:09:48.941Z,21.35
2024-01-16T10:12:20.338Z,23.63
2024-01-16T10:14:54.722Z,25.52
2024-01-16T10:17:25.494Z,21.60
2024-01-16T10:19:59.729Z,20.05
2024-01-16T10:22:30.567Z,13.20
2024-01-16T10:25:09.962Z,10.65
2024-01-16T10:27:42.736Z,10.55
2024-01-16T10:30:17.102Z,22.33
2024-01-16T10:32:50.084Z,20.23
2024-01-16T10:35:22.293Z,20.90
2024-01-16T10:37:54.773Z,14.75
2024-01-16T10:40:27.854Z,12.05
2024-01-16T10:43:06.047Z,14.70
2024-01-16T10:45:39.379Z,12.30
2024-01-16T10:48:11.753Z,8.30
2024-01-16T10:50:42.870Z,13.10
2024-01-16T10:53:14.188Z,13.48
2024-01-16T10:55:54.983Z,12.13
2024-01-16T10:58:27.074Z,15.40
2024-01-16T11:01:01.833Z,12.93
2024-01-16T11:03:39.173Z,15.25
2024-01-16T11:06:12.829Z,11.02
2024-01-16T11:08:44.147Z,16.35
2024-01-16T11:11:15.723Z,12.95
2024-01-16T11:13:47.871Z,8.45
2024-01-16T11:16:22.910Z,10.43
2024-01-16T11:18:54.974Z,15.52
2024-01-16T11:21:26.738Z,14.15
2024-01-16T11:23:57.686Z,12.32
2024-01-16T11:26:34.735Z,10.60
2024-01-16T11:29:38.876Z,12.18
2024-01-16T11:32:23.147Z,8.23
2024-01-16T11:35:01.767Z,24.75
2024-01-16T11:37:34.324Z,15.13
2024-01-16T11:40:27.446Z,14.23
2024-01-16T11:42:59.749Z,13.60
2024-01-16T11:45:52.801Z,16.23
2024-01-16T11:48:26.404Z,15.50
2024-01-16T11:51:00.376Z,12.80
2024-01-16T11:53:41.980Z,12.57
2024-01-16T11:59:32.470Z,12.93
2024-01-16T12:02:14.588Z,11.88
2024-01-16T12:04:58.123Z,16.52
2024-01-16T12:07:29.135Z,20.92
2024-01-16T12:10:04.136Z,10.32
2024-01-16T12:12:34.886Z,10.43
2024-01-16T12:15:05.709Z,8.38
2024-01-16T12:17:36.594Z,11.30
2024-01-16T12:20:23.826Z,7.78
2024-01-16T12:23:01.972Z,6.70
2024-01-16T12:26:00.461Z,14.20
2024-01-16T12:28:32.176Z,8.77
2024-01-16T12:31:04.914Z,5.32
2024-01-16T12:33:35.889Z,8.48
2024-01-16T12:36:12.071Z,5.22
2024-01-16T12:38:42.899Z,13.73
2024-01-16T12:41:16.898Z,10.40
2024-01-16T12:43:52.621Z,8.65
2024-01-16T12:46:25.973Z,19.25
2024-01-16T12:49:03.658Z,13.15
2024-01-16T12:51:39.607Z,12.32
2024-01-16T12:54:18.996Z,11.32
2024-01-16T12:56:50.433Z,11.93
2024-01-16T12:59:21.172Z,10.00
2024-01-16T13:01:52.577Z,11.38
2024-01-16T13:04:23.222Z,10.05
2024-01-16T13:07:07.036Z,8.63
2024-01-16T13:09:38.277Z,11.63
2024-01-16T13:12:09.492Z,13.27
2024-01-16T13:14:40.401Z,11.60
2024-01-16T13:17:11.555Z,10.15
2024-01-16T13:19:44.114Z,11.60
2024-01-16T13:22:17.552Z,13.18
2024-01-16T13:24:54.683Z,8.65
2024-01-16T13:27:34.036Z,12.93
2024-01-16T13:30:04.896Z,16.38
2024-01-16T13:32:38.876Z,13.98
2024-01-16T13:35:11.233Z,14.52
2024-01-16T13:37:44.660Z,10.65
2024-01-16T13:40:21.500Z,12.90
2024-01-16T13:42:53.404Z,14.05
2024-01-16T13:45:37.591Z,10.82
2024-01-16T13:48:10.204Z,12.50
2024-01-16T13:50:41.066Z,10.20
2024-01-16T13:53:15.015Z,13.00
2024-01-16T13:55:46.153Z,16.58
2024-01-16T13:58:17.031Z,9.77
2024-01-16T14:00:47.921Z,13.00
2024-01-16T14:03:18.984Z,11.38
2024-01-16T14:05:50.643Z,8.93
2024-01-16T14:08:24.021Z,8.80
2024-01-16T14:10:54.906Z,10.48
2024-01-16T14:13:26.590Z,9.38
2024-01-16T14:15:58.683Z,12.40
2024-01-16T14:18:29.503Z,10.57
2024-01-16T14:21:00.434Z,9.07
2024-01-16T14:23:33.798Z,7.05
2024-01-16T14:26:04.505Z,6.45
2024-01-16T14:28:35.229Z,9.95
2024-01-16T14:31:06.040Z,8.25
2024-01-16T14:33:36.885Z,11.70
2024-01-16T14:36:09.519Z,6.32
2024-01-16T14:38:43.087Z,7.00
2024-01-16T14:41:15.360Z,7.75
2024-01-16T14:43:47.239Z,8.32
2024-01-16T14:46:18.019Z,7.07
2024-01-16T14:48:49.529Z,10.15
2024-01-16T14:51:20.424Z,11.43
2024-01-16T14:53:53.948Z,11.93
2024-01-16T14:56:25.589Z,12.23
2024-01-16T14:58:56.332Z,10.32
2024-01-16T15:01:27.290Z,10.55
2024-01-16T15:03:59.350Z,10.40
2024-01-16T15:06:30.932Z,12.65
2024-01-16T15:09:05.577Z,10.75
2024-01-16T15:11:36.443Z,10.95
2024-01-16T15:14:07.200Z,17.15
2024-01-16T15:16:38.013Z,12.25
2024-01-16T15:19:08.908Z,7.47
2024-01-16T15:21:40.859Z,7.68
2024-01-16T15:24:17.686Z,6.47
2024-01-16T15:26:48.558Z,9.10
2024-01-16T15:29:19.317Z,11.75
2024-01-16T15:31:50.312Z,11.77
2024-01-16T15:34:21.143Z,9.20
2024-01-16T15:36:52.359Z,9.48
2024-01-16T15:39:25.847Z,6.53
2024-01-16T15:41:56.681Z,8.15
2024-01-16T15:44:27.527Z,8.02
2024-01-16T15:47:01.812Z,8.05
2024-01-16T15:49:33.574Z,4.85
2024-01-16T15:52:04.381Z,9.60
2024-01-16T15:54:38.347Z,8.30
2024-01-16T15:57:09.393Z,9.07
2024-01-16T15:59:40.160Z,6.25
2024-01-16T16:02:11.048Z,9.90
2024-01-16T16:04:42.844Z,7.60
2024-01-16T16:07:14.513Z,8.02
2024-01-16T16:09:47.858Z,10.18
2024-01-16T16:12:19.248Z,12.32
2024-01-16T16:14:50.088Z,9.82
2024-01-16T16:17:20.941Z,10.80
2024-01-16T16:19:53.283Z,13.20
2024-01-16T16:22:24.027Z,7.72
2024-01-16T16:24:58.705Z,7.95
2024-01-16T16:27:31.347Z,8.07
2024-01-16T16:30:02.189Z,11.32
2024-01-16T16:32:33.046Z,7.50
2024-01-16T16:35:05.908Z,7.95
2024-01-16T16:37:36.712Z,6.38
2024-01-16T16:40:13.538Z,11.13
2024-01-16T16:42:44.348Z,7.82
2024-01-16T16:45:15.588Z,5.70
2024-01-16T16:47:46.356Z,9.02
2024-01-16T16:50:17.174Z,6.70
2024-01-16T16:52:48.132Z,10.07
2024-01-16T16:55:21.701Z,8.30
2024-01-16T16:57:52.545Z,7.00
2024-01-16T17:00:23.870Z,7.47
2024-01-16T17:02:54.769Z,6.93
2024-01-16T17:05:25.955Z,6.45
2024-01-16T17:07:56.844Z,7.32
2024-01-16T17:10:27.595Z,7.07
2024-01-16T17:12:58.313Z,6.38
2024-01-16T17:15:29.072Z,4.57
2024-01-16T17:17:59.846Z,5.45
2024-01-16T17:20:31.547Z,5.20
2024-01-16T17:23:02.749Z,4.47
2024-01-16T17:25:36.070Z,4.95
2024-01-16T17:28:07.420Z,5.63
2024-01-16T17:30:38.308Z,4.53
2024-01-16T17:33:09.529Z,5.32
2024-01-16T17:35:40.383Z,6.40
2024-01-16T17:38:11.172Z,3.65
2024-01-16T17:40:44.905Z,4.63
2024-01-16T17:43:15.672Z,3.92
2024-01-16T17:45:46.599Z,8.80
2024-01-16T17:48:18.369Z,1.90
2024-01-16T17:50:50.172Z,5.10
2024-01-16T17:53:22.633Z,2.38
2024-01-16T17:55:57.135Z,3.15
2024-01-16T17:58:27.906Z,1.85
2024-01-16T18:00:58.736Z,3.00
2024-01-16T18:03:40.400Z,1.58
2024-01-16T18:06:13.860Z,2.03
2024-01-16T18:08:44.916Z,2.47
2024-01-16T18:11:18.245Z,3.97
2024-01-16T18:13:49.011Z,1.58
2024-01-16T18:16:19.776Z,3.03
2024-01-16T18:18:53.190Z,1.73
2024-01-16T18:21:24.151Z,4.40
2024-01-16T18:23:54.882Z,3.75
2024-01-16T18:26:28.624Z,1.92
2024-01-16T18:28:59.876Z,1.58
2024-01-16T18:31:30.573Z,3.65
2024-01-16T18:34:01.470Z,9.23
2024-01-16T18:36:32.357Z,25.58
2024-01-16T18:39:04.696Z,1.35
2024-01-16T18:41:38.551Z,1.58
2024-01-16T18:44:13.417Z,0.63
2024-01-16T18:46:44.195Z,1.45
2024-01-16T18:49:17.226Z,1.38
2024-01-16T18:51:48.897Z,1.25
2024-01-16T18:54:20.268Z,1.00
2024-01-16T18:56:53.857Z,1.23
2024-01-16T18:59:24.935Z,1.48
2024-01-16T19:01:55.693Z,2.67
2024-01-16T19:04:27.426Z,4.05
2024-01-16T19:06:58.180Z,1.27
2024-01-16T19:09:36.958Z,3.15
2024-01-16T19:12:13.589Z,7.53
2024-01-16T19:14:46.307Z,1.40
2024-01-16T19:17:19.904Z,4.35
2024-01-16T19:19:50.761Z,2.58
2024-01-16T19:22:21.586Z,5.60
2024-01-16T19:24:52.445Z,6.25
2024-01-16T19:27:27.045Z,4.22
2024-01-16T19:29:59.774Z,2.33
2024-01-16T19:32:30.789Z,6.05
2024-01-16T19:35:03.349Z,5.47
2024-01-16T19:37:34.242Z,2.60
2024-01-16T19:40:05.759Z,5.43
2024-01-16T19:42:40.215Z,3.40
2024-01-16T19:45:12.894Z,4.45
2024-01-16T19:47:44.045Z,4.28
2024-01-16T19:50:23.774Z,4.10
2024-01-16T19:52:59.216Z,4.25
2024-01-16T19:55:30.668Z,2.00
2024-01-16T19:58:04.536Z,5.45
2024-01-16T20:00:35.913Z,8.63
2024-01-16T20:03:08.732Z,3.72
2024-01-16T20:05:43.858Z,7.18
2024-01-16T20:08:15.317Z,6.45
2024-01-16T20:10:46.078Z,10.10
2024-01-16T20:13:20.249Z,11.25
2024-01-16T20:15:53.997Z,8.00
2024-01-16T20:18:24.924Z,10.43
2024-01-16T20:20:56.120Z,6.93
2024-01-16T20:23:27.099Z,6.85
2024-01-16T20:25:58.314Z,7.93
2024-01-16T20:28:31.852Z,5.82
2024-01-16T20:31:02.792Z,7.35
2024-01-16T20:33:33.674Z,5.32
2024-01-16T20:36:04.610Z,4.03
2024-01-16T20:38:35.405Z,5.70
2024-01-16T20:41:06.775Z,8.00
2024-01-16T20:43:40.373Z,6.07
2024-01-16T20:46:11.623Z,5.68
2024-01-16T20:48:42.656Z,6.80
2024-01-16T20:51:17.318Z,3.38
2024-01-16T20:53:57.039Z,5.18
2024-01-16T20:56:28.376Z,2.97
2024-01-16T20:59:25.639Z,4.13
2024-01-16T21:01:56.614Z,6.22
2024-01-16T21:04:27.457Z,7.32
2024-01-16T21:06:59.992Z,8.88
2024-01-16T21:09:31.188Z,8.65
2024-01-16T21:12:04.579Z,8.02
2024-01-16T21:14:39.292Z,5.85
2024-01-16T21:17:10.084Z,4.50
2024-01-16T21:19:40.838Z,8.20
2024-01-16T21:22:12.387Z,7.38
2024-01-16T21:24:43.772Z,8.77
2024-01-16T21:27:16.136Z,6.47
2024-01-16T21:29:49.640Z,4.82
2024-01-16T21:32:20.437Z,7.40
2024-01-16T21:34:51.277Z,8.65
2024-01-16T21:37:22.043Z,5.65
2024-01-16T21:39:54.310Z,6.13
2024-01-16T21:42:25.280Z,4.05
2024-01-16T21:44:58.756Z,7.15
2024-01-16T21:47:29.627Z,10.40
2024-01-16T21:50:06.124Z,8.32
2024-01-16T21:52:38.133Z,10.10
2024-01-16T21:55:10.124Z,15.05
2024-01-16T21:57:41.686Z,12.50
2024-01-16T22:00:16.587Z,14.57
2024-01-16T22:02:47.386Z,8.48
2024-01-16T22:05:18.164Z,7.13
2024-01-16T22:07:48.954Z,12.98
2024-01-16T22:10:19.878Z,10.43
2024-01-16T22:12:50.730Z,9.13
2024-01-16T22:15:24.298Z,11.63
2024-01-16T22:17:56.844Z,7.25
2024-01-16T22:20:33.247Z,10.07
2024-01-16T22:23:04.341Z,8.35
2024-01-16T22:25:35.103Z,12.55
2024-01-16T22:28:06.099Z,7.07
2024-01-16T22:30:39.727Z,8.02
2024-01-16T22:33:10.569Z,10.30
2024-01-16T22:35:41.433Z,9.13
2024-01-16T22:38:12.200Z,11.02
2024-01-16T22:40:43.565Z,12.05
2024-01-16T22:43:14.264Z,14.05
2024-01-16T22:45:47.607Z,9.30
2024-01-16T22:48:18.462Z,15.18
2024-01-16T22:50:50.955Z,13.38
2024-01-16T22:53:23.427Z,9.02
2024-01-16T22:55:54.352Z,15.45
2024-01-16T22:58:25.101Z,14.57
2024-01-16T23:01:02.405Z,15.32
2024-01-16T23:03:33.373Z,12.32
2024-01-16T23:06:04.595Z,12.25
2024-01-16T23:08:35.425Z,13.63
2024-01-16T23:11:06.232Z,15.75
2024-01-16T23:13:37.833Z,11.18
2024-01-16T23:16:11.304Z,15.45
2024-01-16T23:18:42.307Z,13.95
2024-01-16T23:21:15.193Z,10.88
2024-01-16T23:23:52.255Z,15.40
2024-01-16T23:26:23.999Z,15.20
2024-01-16T23:28:55.000Z,16.73
2024-01-16T23:31:28.411Z,13.75
2024-01-16T23:33:59.206Z,12.48
2024-01-16T23:36:31.490Z,13.63
2024-01-16T23:39:02.887Z,14.73
2024-01-16T23:41:33.730Z,16.08
2024-01-16T23:44:05.750Z,18.05
2024-01-16T23:46:40.178Z,20.15
2024-01-16T23:49:11.025Z,15.88
2024-01-16T23:51:41.763Z,14.63
2024-01-16T23:54:12.555Z,23.02
2024-01-16T23:56:43.590Z,20.95
2024-01-16T23:59:14.365Z,13.07
